This is the latest recevied weather packets stored in our database for station/object N4MRV-1. If no packets are shown the sender has not sent any weather packets the latest 10 day(s).
| Time | Temp. | Humidity | Pressure | Rain* | Wind** | Luminosity | Snow |
|---|---|---|---|---|---|---|---|
| 1777471216 | 12.78° C | 86% | 1014.9 hPa | 0 mm | - | 59 W/m² | - |
| 1777468516 | 11.67° C | 87% | 1015.4 hPa | 0 mm | - | 71 W/m² | - |
| 1777467616 | 11.67° C | 88% | 1015.5 hPa | 0 mm | - | 54 W/m² | - |
| 1777466716 | 11.11° C | 87% | 1015.7 hPa | 0 mm | - | 49 W/m² | - |
| 1777461336 | 10° C | 87% | 1014.7 hPa | 0 mm | - | 20 W/m² | - |
| 1777457716 | 10° C | 88% | 1014.7 hPa | 0 mm | - | 0 W/m² | - |
| 1777453235 | 10° C | 87% | 1015.4 hPa | 0 mm | - | 0 W/m² | - |
| 1777449637 | 10.56° C | 88% | 1015 hPa | 0 mm | - | 0 W/m² | - |
| 1777446917 | 10.56° C | 87% | 1015.5 hPa | 0 mm | - | 0 W/m² | - |
| 1777442417 | 11.11° C | 88% | 1015.8 hPa | 0 mm | - | 0 W/m² | - |
| 1777441517 | 11.67° C | 88% | 1015.9 hPa | 0 mm | - | 0 W/m² | - |
| 1777434316 | 12.22° C | 90% | 1018.3 hPa | 0 mm | - | 0 W/m² | - |
| 1777425317 | 15° C | 82% | 1017.7 hPa | 0 mm | - | 0 W/m² | - |
| 1777424417 | 15.56° C | 80% | 1017 hPa | 0 mm | - | 0 W/m² | - |
| 1777417217 | 18.33° C | 72% | 1017.7 hPa | 0 mm | - | 38 W/m² | - |
| 1777409137 | 18.89° C | 65% | 1017.6 hPa | 0 mm | - | 154 W/m² | - |
| 1777401017 | 18.33° C | 61% | 1019.1 hPa | 0 mm | - | 257 W/m² | - |
| 1777392016 | 12.78° C | 77% | 1021.4 hPa | 0 mm | - | 121 W/m² | - |
| 1777390216 | 12.22° C | 76% | 1022 hPa | 0 mm | - | 98 W/m² | - |
| 1777389316 | 12.22° C | 76% | 1022 hPa | 0 mm | - | 138 W/m² | - |
| 1777383916 | 10° C | 88% | 1021.6 hPa | 0 mm | - | 83 W/m² | - |
| 1777383016 | 9.44° C | 88% | 1021.4 hPa | 0 mm | - | 81 W/m² | - |
| 1777382116 | 9.44° C | 89% | 1021.4 hPa | 0 mm | - | 62 W/m² | - |
| 1777381236 | 8.89° C | 90% | 1022.4 hPa | 0 mm | - | 52 W/m² | - |
| 1777379436 | 8.33° C | 90% | 1023.4 hPa | 0 mm | - | 43 W/m² | - |
* Rain latest hour (hover to see other rain measurements)
** Current wind speed in m/s (hover to see current wind gust speed)